• Join FlightAware (Why Join?)
  • Login
  • US Flag 
09:09PM EDT


 

Airport Tracker/Info


-or-


 

Live Flight TrackerFlight Track Log ✈ ACA290 ✈ 25-May-2013 ✈ CYXY - CYVR

Flight Track Log - Related Links

Times and Time Zones

All times are in EDT time to prevent confusion due to time zone crossing. See the ACA290 flight status page for this flight to view local times or setup timezone preferences in your user account.

Time Position Orientation Groundspeed Altitude Reporting Facility
EDT Latitude Longitude Course Direction KTS MPH feet Rate Location/Type
04:59PM 60.3282 -134.6560 141° Southeast  Level FlightAware Approximate
05:00PM 60.2388 -134.5085 140° Southeast  Level FlightAware Approximate
05:01PM 60.1499 -134.3599 140° Southeast  Level FlightAware Approximate
05:02PM 60.0609 -134.2122 140° Southeast  Level FlightAware Approximate
05:03PM 59.9714 -134.0658 141° Southeast  Level FlightAware Approximate
05:04PM 59.8817 -133.9206 141° Southeast  Level FlightAware Approximate
05:05PM 59.7917 -133.7764 141° Southeast  Level FlightAware Approximate
05:06PM 59.7020 -133.6318 140° Southeast  Level FlightAware Approximate
05:07PM 59.6130 -133.4860 140° Southeast  Level FlightAware Approximate
05:08PM 59.5231 -133.3429 143° Southeast  Level FlightAware Approximate
05:09PM 59.4312 -133.2050 143° Southeast  Level FlightAware Approximate
05:10PM 59.3436 -133.0580 146° Southeast  Level FlightAware Approximate
05:11PM 59.2511 -132.9226 141° Southeast  Level FlightAware Approximate
05:12PM 59.1612 -132.7810 141° Southeast  Level FlightAware Approximate
05:13PM 59.0710 -132.6401 141° Southeast  Level FlightAware Approximate
05:14PM 58.9801 -132.5017 142° Southeast  Level FlightAware Approximate
05:15PM 58.8889 -132.3641 142° Southeast  Level FlightAware Approximate
05:16PM 58.7976 -132.2273 142° Southeast  Level FlightAware Approximate
05:17PM 58.7062 -132.0911 142° Southeast  Level FlightAware Approximate
05:18PM 58.6144 -131.9561 143° Southeast  Level FlightAware Approximate
05:19PM 58.5218 -131.8237 143° Southeast  Level FlightAware Approximate
05:20PM 58.4291 -131.6919 143° Southeast  Level FlightAware Approximate
05:21PM 58.3362 -131.5608 143° Southeast  Level FlightAware Approximate
05:22PM 58.2440 -131.4283 143° Southeast  Level FlightAware Approximate
05:23PM 58.1519 -131.2959 143° Southeast  Level FlightAware Approximate
05:24PM 58.0597 -131.1642 143° Southeast  Level FlightAware Approximate
05:25PM 57.9673 -131.0332 143° Southeast  Level FlightAware Approximate
05:26PM 57.8748 -130.9028 143° Southeast  Level FlightAware Approximate
05:27PM 57.7880 -130.7823 143° Southeast  Level FlightAware Approximate
05:28PM 57.7012 -130.6624 144° Southeast  Level FlightAware Approximate
05:29PM 57.6142 -130.5431 144° Southeast  Level FlightAware Approximate
05:30PM 57.5272 -130.4243 144° Southeast  Level FlightAware Approximate
05:31PM 57.4400 -130.3062 144° Southeast  Level FlightAware Approximate
05:32PM 57.3527 -130.1885 144° Southeast  Level FlightAware Approximate
05:33PM 57.2653 -130.0714 144° Southeast  Level FlightAware Approximate
05:34PM 57.1778 -129.9549 144° Southeast  Level FlightAware Approximate
05:35PM 57.0902 -129.8389 144° Southeast  Level FlightAware Approximate
05:36PM 57.0024 -129.7235 144° Southeast  Level FlightAware Approximate
05:37PM 56.9146 -129.6086 144° Southeast  Level FlightAware Approximate
05:38PM 56.8267 -129.4943 145° Southeast  Level FlightAware Approximate
05:39PM 56.7383 -129.3801 145° Southeast  Level FlightAware Approximate
05:39PM 56.8833 -129.6167 145° Southeast 450 518 41,000  Level Vancouver Center
05:40PM 56.6502 -129.2667 145° Southeast  Level FlightAware Approximate
05:40PM 56.7833 -129.4833 144° Southeast 440 506 41,000  Level Vancouver Center
05:41PM 56.5620 -129.1539 145° Southeast  Level FlightAware Approximate
05:41PM 56.7000 -129.3833 147° Southeast 440 506 41,000  Level Vancouver Center
05:42PM 56.4737 -129.0416 145° Southeast  Level FlightAware Approximate
05:42PM 56.5833 -129.2167 142° Southeast 440 506 41,000  Level Vancouver Center
05:43PM 56.3853 -128.9298 145° Southeast  Level FlightAware Approximate
05:43PM 56.4667 -129.1000 151° Southeast 440 506 41,000  Level Vancouver Center
05:44PM 56.2968 -128.8185 145° Southeast  Level FlightAware Approximate
05:44PM 56.3833 -128.9667 138° Southeast 440 506 41,000  Level Vancouver Center
05:45PM 56.2833 -128.8333 143° Southeast 440 506 41,000  Level Vancouver Center
05:46PM 56.1833 -128.7167 147° Southeast 440 506 41,000  Level Vancouver Center
05:47PM 56.0833 -128.6000 147° Southeast 450 518 41,000  Level Vancouver Center
05:48PM 55.9833 -128.4667 143° Southeast 460 529 41,000  Level Vancouver Center
05:49PM 55.8833 -128.3500 147° Southeast 450 518 41,000  Level Vancouver Center
05:50PM 55.7667 -128.2167 147° Southeast 450 518 41,000  Level Vancouver Center
05:51PM 55.6667 -128.0833 143° Southeast 450 518 41,000  Level Vancouver Center
05:52PM 55.5667 -127.9500 143° Southeast 480 552 41,000  Level Vancouver Center
05:53PM 55.4667 -127.8500 150° Southeast 450 518 41,000  Level Vancouver Center
05:54PM 55.3667 -127.7333 146° Southeast 420 483 41,000  Level Vancouver Center
05:55PM 55.2500 -127.6000 147° Southeast 440 506 41,000  Level Vancouver Center
05:56PM 55.1667 -127.4667 138° Southeast 450 518 41,000  Level Vancouver Center
05:57PM 55.0667 -127.3833 154° Southeast 450 518 41,000  Level Vancouver Center
05:58PM 54.9500 -127.2500 147° Southeast 440 506 41,000  Level Vancouver Center
05:59PM 54.8500 -127.1333 146° Southeast 440 506 41,000  Level Vancouver Center
06:00PM 54.7500 -127.0000 142° Southeast 440 506 41,000  Level Vancouver Center
06:01PM 54.6500 -126.8833 146° Southeast 440 506 41,000  Level Vancouver Center
06:02PM 54.5500 -126.7833 150° Southeast 440 506 41,000  Level Vancouver Center
06:03PM 54.4333 -126.6667 150° Southeast 440 506 41,000  Level Vancouver Center
06:04PM 54.3333 -126.5667 150° Southeast 440 506 41,000  Level Vancouver Center
06:05PM 54.2167 -126.5000 162° South 440 506 41,000  Level Vancouver Center
06:06PM 54.1000 -126.4500 166° South 440 506 41,000  Level Vancouver Center
06:07PM 53.9833 -126.3500 153° Southeast 440 506 41,000  Level Vancouver Center
06:08PM 53.8500 -126.2833 164° South 440 506 41,000  Level Vancouver Center
06:09PM 53.7500 -126.2167 158° South 440 506 41,000  Level Vancouver Center
06:10PM 53.6333 -126.1333 157° South 440 506 41,000  Level Vancouver Center
06:11PM 53.5167 -126.0667 161° South 440 506 41,000  Level Vancouver Center
06:12PM 53.4167 -125.9833 154° Southeast 440 506 41,000  Level Vancouver Center
06:13PM 53.3000 -125.9167 161° South 440 506 41,000  Level Vancouver Center
06:14PM 53.1833 -125.8500 161° South 440 506 41,000  Level Vancouver Center
06:15PM 53.0667 -125.7667 157° South 440 506 41,000  Level Vancouver Center
06:16PM 52.9500 -125.7167 166° South 440 506 41,000  Level Vancouver Center
06:17PM 52.8333 -125.6167 153° Southeast 440 506 41,000  Level Vancouver Center
06:18PM 52.7167 -125.5667 165° South 440 506 41,000  Level Vancouver Center
06:19PM 52.6000 -125.5000 161° South 450 518 41,000  Level Vancouver Center
06:20PM 52.4833 -125.4167 156° South 440 506 41,000  Level Vancouver Center
06:21PM 52.3667 -125.3500 161° South 440 506 41,000  Level Vancouver Center
06:22PM 52.2500 -125.2667 156° South 440 506 41,000  Level Vancouver Center
06:23PM 52.1333 -125.2167 165° South 450 518 41,000  Level Vancouver Center
06:24PM 52.0167 -125.1333 156° South 450 518 41,000  Level Vancouver Center
06:25PM 51.9000 -125.0667 161° South 440 506 41,000  Level Vancouver Center
06:26PM 51.7833 -125.0167 165° South 450 518 41,000  Level Vancouver Center
06:27PM 51.6667 -124.9333 156° South 450 518 41,000  Level Vancouver Center
06:28PM 51.5500 -124.8667 160° South 450 518 41,000  Level Vancouver Center
06:29PM 51.4167 -124.8167 167° South 450 518 41,000  Level Vancouver Center
06:30PM 51.3167 -124.7333 152° Southeast 450 518 41,000  Level Vancouver Center
06:31PM 51.1833 -124.6833 167° South 450 518 41,000  Level Vancouver Center
06:32PM 51.0667 -124.6000 156° South 450 518 41,000  Level Vancouver Center
06:33PM 50.9667 -124.5333 157° South 450 518 41,000  Level Vancouver Center
06:34PM 50.8333 -124.4667 162° South 450 518 41,000  Level Vancouver Center
06:35PM 50.7167 -124.4000 160° South 450 518 41,000 -600 Level Vancouver Center
06:36PM 50.6000 -124.3500 165° South 440 506 39,900 -1,800 Descending Vancouver Center
06:37PM 50.5000 -124.2667 152° Southeast 430 495 37,500 -2,460 Descending Vancouver Center
06:38PM 50.3833 -124.2167 165° South 430 495 35,000 -2,460 Descending Vancouver Center
06:39PM 50.2833 -124.1333 152° Southeast 420 483 32,600 -2,460 Descending Vancouver Center
06:40PM 50.1833 -124.0333 147° Southeast 410 472 30,100 -2,400 Descending Vancouver Center
06:41PM 50.0833 -123.9500 152° Southeast 400 460 27,900 -2,340 Descending Vancouver Center
06:42PM 49.9833 -123.8833 157° South 380 437 25,500 -2,400 Descending Vancouver Center
06:43PM 49.9000 -123.8167 153° Southeast 370 426 23,200 -2,280 Descending Vancouver Center
06:44PM 49.8000 -123.7500 157° South 360 414 21,000 -2,040 Descending Vancouver Center
06:45PM 49.7333 -123.6667 141° Southeast 340 391 19,200 -1,800 Descending Vancouver Center
06:46PM 49.6500 -123.6167 159° South 320 368 17,400 -2,040 Descending Vancouver Center
06:47PM 49.5667 -123.5500 153° Southeast 310 357 15,200 -2,220 Descending Vancouver Center
06:48PM 49.5000 -123.4833 147° Southeast 290 334 13,000 -2,220 Descending Vancouver Center
06:49PM 49.4333 -123.4333 154° Southeast 290 334 10,800 -1,500 Descending Vancouver Center
06:50PM 49.3667 -123.3833 154° Southeast 280 322 10,000 -960 Descending Vancouver Center
06:51PM 49.3000 -123.3333 154° Southeast 280 322 8,900 -1,320 Descending Vancouver Center
06:52PM 49.2667 -123.2333 117° Southeast 270 311 7,400 -1,800 Descending Vancouver Center
06:53PM 49.2500 -123.1333 104° East 260 299 5,300 -1,200 Descending Vancouver Center
06:54PM 49.2333 -123.0333 104° East 240 276 5,000 -240 Descending Vancouver Center
06:55PM 49.2333 -122.9333 90° East 230 265 4,900 -840 Descending Vancouver Center
06:56PM 49.1833 -122.9000 156° South 220 253 3,400 -1,320 Descending Vancouver Center
06:57PM 49.1667 -122.9833 253° West 190 219 2,300 -1,020 Descending Vancouver Center
06:58PM 49.1667 -123.0667 270° West 190 219 1,400 -900 Descending Vancouver Center
06:59PM 49.1833 -123.1167 297° West 160 184 600 -840 Descending Vancouver Center